sensor_id;sensor_type;location;lat;lon;timestamp;P1;durP1;ratioP1;P2;durP2;ratioP2
2055;SDS011;1033;52.560;13.374;2022-08-23T00:02:24;11.83;;;6.27;;
2055;SDS011;1033;52.560;13.374;2022-08-23T00:04:54;5.47;;;4.97;;
2055;SDS011;1033;52.560;13.374;2022-08-23T00:07:35;6.83;;;5.50;;
2055;SDS011;1033;52.560;13.374;2022-08-23T00:10:06;5.33;;;4.80;;
2055;SDS011;1033;52.560;13.374;2022-08-23T00:12:37;6.00;;;4.97;;
2055;SDS011;1033;52.560;13.374;2022-08-23T00:15:07;6.30;;;5.80;;
2055;SDS011;1033;52.560;13.374;2022-08-23T00:17:40;6.03;;;5.47;;
2055;SDS011;1033;52.560;13.374;2022-08-23T00:20:10;8.07;;;5.23;;
2055;SDS011;1033;52.560;13.374;2022-08-23T00:22:44;7.50;;;5.87;;
2055;SDS011;1033;52.560;13.374;2022-08-23T00:25:13;6.53;;;5.40;;
2055;SDS011;1033;52.560;13.374;2022-08-23T00:27:43;5.20;;;4.57;;
2055;SDS011;1033;52.560;13.374;2022-08-23T00:30:13;7.63;;;5.70;;
2055;SDS011;1033;52.560;13.374;2022-08-23T00:32:45;5.97;;;5.37;;
2055;SDS011;1033;52.560;13.374;2022-08-23T00:35:14;6.20;;;5.23;;
2055;SDS011;1033;52.560;13.374;2022-08-23T00:37:53;6.93;;;4.40;;
2055;SDS011;1033;52.560;13.374;2022-08-23T00:40:44;5.23;;;4.70;;
2055;SDS011;1033;52.560;13.374;2022-08-23T00:43:19;5.20;;;4.70;;
2055;SDS011;1033;52.560;13.374;2022-08-23T00:46:14;6.47;;;5.30;;
2055;SDS011;1033;52.560;13.374;2022-08-23T00:49:14;5.30;;;4.90;;
2055;SDS011;1033;52.560;13.374;2022-08-23T00:51:46;8.33;;;5.70;;
2055;SDS011;1033;52.560;13.374;2022-08-23T00:54:25;5.27;;;4.77;;
2055;SDS011;1033;52.560;13.374;2022-08-23T00:56:58;7.07;;;6.20;;
2055;SDS011;1033;52.560;13.374;2022-08-23T00:59:31;6.17;;;5.03;;
2055;SDS011;1033;52.560;13.374;2022-08-23T01:02:01;7.00;;;6.33;;
2055;SDS011;1033;52.560;13.374;2022-08-23T01:04:38;6.70;;;6.03;;
2055;SDS011;1033;52.560;13.374;2022-08-23T01:07:13;6.90;;;4.50;;
2055;SDS011;1033;52.560;13.374;2022-08-23T01:10:00;4.70;;;4.07;;
2055;SDS011;1033;52.560;13.374;2022-08-23T01:12:47;6.20;;;5.33;;
2055;SDS011;1033;52.560;13.374;2022-08-23T01:15:23;4.83;;;4.30;;
2055;SDS011;1033;52.560;13.374;2022-08-23T01:18:00;5.07;;;4.30;;
2055;SDS011;1033;52.560;13.374;2022-08-23T01:20:37;5.90;;;4.60;;
2055;SDS011;1033;52.560;13.374;2022-08-23T01:23:22;4.57;;;4.17;;
2055;SDS011;1033;52.560;13.374;2022-08-23T01:26:08;5.47;;;3.80;;
2055;SDS011;1033;52.560;13.374;2022-08-23T01:28:48;9.13;;;4.10;;
2055;SDS011;1033;52.560;13.374;2022-08-23T01:31:19;4.80;;;3.97;;
2055;SDS011;1033;52.560;13.374;2022-08-23T01:33:53;5.70;;;4.13;;
2055;SDS011;1033;52.560;13.374;2022-08-23T01:36:26;5.37;;;4.27;;
2055;SDS011;1033;52.560;13.374;2022-08-23T01:38:59;4.73;;;4.23;;
2055;SDS011;1033;52.560;13.374;2022-08-23T01:41:29;7.60;;;4.43;;
2055;SDS011;1033;52.560;13.374;2022-08-23T01:43:58;4.33;;;3.43;;
2055;SDS011;1033;52.560;13.374;2022-08-23T01:46:28;10.83;;;4.63;;
2055;SDS011;1033;52.560;13.374;2022-08-23T01:48:57;4.23;;;3.83;;
2055;SDS011;1033;52.560;13.374;2022-08-23T01:51:29;4.73;;;3.50;;
2055;SDS011;1033;52.560;13.374;2022-08-23T01:54:00;3.90;;;3.33;;
2055;SDS011;1033;52.560;13.374;2022-08-23T01:56:30;4.07;;;3.63;;
2055;SDS011;1033;52.560;13.374;2022-08-23T01:59:09;5.80;;;4.40;;
2055;SDS011;1033;52.560;13.374;2022-08-23T02:01:45;4.63;;;3.83;;
2055;SDS011;1033;52.560;13.374;2022-08-23T02:04:15;4.27;;;3.80;;
2055;SDS011;1033;52.560;13.374;2022-08-23T02:06:45;6.90;;;3.70;;
2055;SDS011;1033;52.560;13.374;2022-08-23T02:09:21;4.40;;;3.90;;
2055;SDS011;1033;52.560;13.374;2022-08-23T02:11:55;5.57;;;3.87;;
2055;SDS011;1033;52.560;13.374;2022-08-23T02:14:24;7.17;;;4.10;;
2055;SDS011;1033;52.560;13.374;2022-08-23T02:16:59;4.63;;;3.50;;
2055;SDS011;1033;52.560;13.374;2022-08-23T02:19:31;6.67;;;4.63;;
2055;SDS011;1033;52.560;13.374;2022-08-23T02:22:02;4.10;;;3.00;;
2055;SDS011;1033;52.560;13.374;2022-08-23T02:24:38;6.03;;;3.57;;
2055;SDS011;1033;52.560;13.374;2022-08-23T02:27:09;3.83;;;3.30;;
2055;SDS011;1033;52.560;13.374;2022-08-23T02:29:42;5.83;;;3.50;;
2055;SDS011;1033;52.560;13.374;2022-08-23T02:32:15;5.80;;;4.10;;
2055;SDS011;1033;52.560;13.374;2022-08-23T02:34:47;5.40;;;4.33;;
2055;SDS011;1033;52.560;13.374;2022-08-23T02:37:31;4.57;;;3.97;;
2055;SDS011;1033;52.560;13.374;2022-08-23T02:40:04;6.70;;;4.30;;
2055;SDS011;1033;52.560;13.374;2022-08-23T02:42:35;7.30;;;3.90;;
2055;SDS011;1033;52.560;13.374;2022-08-23T02:45:04;6.70;;;4.40;;
2055;SDS011;1033;52.560;13.374;2022-08-23T02:47:42;6.60;;;4.23;;
2055;SDS011;1033;52.560;13.374;2022-08-23T02:50:20;3.90;;;3.50;;
2055;SDS011;1033;52.560;13.374;2022-08-23T02:52:49;10.47;;;4.47;;
2055;SDS011;1033;52.560;13.374;2022-08-23T02:55:20;7.37;;;4.27;;
2055;SDS011;1033;52.560;13.374;2022-08-23T02:57:49;4.03;;;3.60;;
2055;SDS011;1033;52.560;13.374;2022-08-23T03:00:18;5.20;;;4.70;;
2055;SDS011;1033;52.560;13.374;2022-08-23T03:02:49;4.43;;;4.10;;
2055;SDS011;1033;52.560;13.374;2022-08-23T03:05:18;5.37;;;3.70;;
2055;SDS011;1033;52.560;13.374;2022-08-23T03:07:47;7.10;;;4.40;;
2055;SDS011;1033;52.560;13.374;2022-08-23T03:10:16;6.57;;;4.60;;
2055;SDS011;1033;52.560;13.374;2022-08-23T03:12:52;8.03;;;4.77;;
2055;SDS011;1033;52.560;13.374;2022-08-23T03:15:22;6.23;;;5.63;;
2055;SDS011;1033;52.560;13.374;2022-08-23T03:17:51;7.23;;;5.20;;
2055;SDS011;1033;52.560;13.374;2022-08-23T03:20:20;4.77;;;4.37;;
2055;SDS011;1033;52.560;13.374;2022-08-23T03:22:50;6.37;;;4.97;;
2055;SDS011;1033;52.560;13.374;2022-08-23T03:25:21;10.80;;;4.60;;
2055;SDS011;1033;52.560;13.374;2022-08-23T03:28:07;6.60;;;4.80;;
2055;SDS011;1033;52.560;13.374;2022-08-23T03:30:41;5.83;;;4.40;;
2055;SDS011;1033;52.560;13.374;2022-08-23T03:33:11;10.87;;;5.40;;
2055;SDS011;1033;52.560;13.374;2022-08-23T03:35:41;6.93;;;4.67;;
2055;SDS011;1033;52.560;13.374;2022-08-23T03:38:11;5.90;;;4.40;;
2055;SDS011;1033;52.560;13.374;2022-08-23T03:40:42;5.07;;;4.50;;
2055;SDS011;1033;52.560;13.374;2022-08-23T03:43:12;5.73;;;4.90;;
2055;SDS011;1033;52.560;13.374;2022-08-23T03:45:42;4.80;;;4.40;;
2055;SDS011;1033;52.560;13.374;2022-08-23T03:48:12;12.93;;;5.30;;
2055;SDS011;1033;52.560;13.374;2022-08-23T03:50:43;6.13;;;4.50;;
2055;SDS011;1033;52.560;13.374;2022-08-23T03:53:13;7.20;;;5.10;;
2055;SDS011;1033;52.560;13.374;2022-08-23T03:55:44;4.80;;;4.30;;
2055;SDS011;1033;52.560;13.374;2022-08-23T03:58:17;6.37;;;4.70;;
2055;SDS011;1033;52.560;13.374;2022-08-23T04:00:47;9.23;;;5.60;;
2055;SDS011;1033;52.560;13.374;2022-08-23T04:03:16;9.57;;;4.67;;
2055;SDS011;1033;52.560;13.374;2022-08-23T04:06:04;6.60;;;4.87;;
2055;SDS011;1033;52.560;13.374;2022-08-23T04:08:33;5.60;;;4.30;;
2055;SDS011;1033;52.560;13.374;2022-08-23T04:11:03;6.17;;;4.70;;
2055;SDS011;1033;52.560;13.374;2022-08-23T04:13:37;6.43;;;4.90;;
2055;SDS011;1033;52.560;13.374;2022-08-23T04:16:07;5.77;;;5.30;;
2055;SDS011;1033;52.560;13.374;2022-08-23T04:18:37;10.53;;;5.07;;
2055;SDS011;1033;52.560;13.374;2022-08-23T04:21:08;5.83;;;5.10;;
2055;SDS011;1033;52.560;13.374;2022-08-23T04:23:48;9.10;;;5.10;;
2055;SDS011;1033;52.560;13.374;2022-08-23T04:26:19;5.70;;;5.20;;
2055;SDS011;1033;52.560;13.374;2022-08-23T04:28:55;6.47;;;5.40;;
2055;SDS011;1033;52.560;13.374;2022-08-23T04:31:24;8.03;;;6.00;;
2055;SDS011;1033;52.560;13.374;2022-08-23T04:34:01;7.20;;;6.17;;
2055;SDS011;1033;52.560;13.374;2022-08-23T04:36:32;10.70;;;5.33;;
2055;SDS011;1033;52.560;13.374;2022-08-23T04:39:10;8.60;;;5.03;;
2055;SDS011;1033;52.560;13.374;2022-08-23T04:41:39;5.97;;;5.37;;
2055;SDS011;1033;52.560;13.374;2022-08-23T04:44:28;7.57;;;5.13;;
2055;SDS011;1033;52.560;13.374;2022-08-23T04:47:00;14.03;;;6.20;;
2055;SDS011;1033;52.560;13.374;2022-08-23T04:49:29;7.17;;;5.80;;
2055;SDS011;1033;52.560;13.374;2022-08-23T04:52:00;7.43;;;4.90;;
2055;SDS011;1033;52.560;13.374;2022-08-23T04:54:30;12.13;;;6.33;;
2055;SDS011;1033;52.560;13.374;2022-08-23T04:57:22;6.27;;;5.67;;
2055;SDS011;1033;52.560;13.374;2022-08-23T04:59:52;6.33;;;5.07;;
2055;SDS011;1033;52.560;13.374;2022-08-23T05:02:21;8.03;;;6.20;;
2055;SDS011;1033;52.560;13.374;2022-08-23T05:04:51;6.37;;;5.07;;
2055;SDS011;1033;52.560;13.374;2022-08-23T05:07:20;11.40;;;4.93;;
2055;SDS011;1033;52.560;13.374;2022-08-23T05:10:10;11.10;;;5.90;;
2055;SDS011;1033;52.560;13.374;2022-08-23T05:12:48;9.40;;;5.90;;
2055;SDS011;1033;52.560;13.374;2022-08-23T05:15:21;8.77;;;6.07;;
2055;SDS011;1033;52.560;13.374;2022-08-23T05:18:00;5.83;;;5.23;;
2055;SDS011;1033;52.560;13.374;2022-08-23T05:20:30;6.00;;;5.37;;
2055;SDS011;1033;52.560;13.374;2022-08-23T05:23:01;10.30;;;4.70;;
2055;SDS011;1033;52.560;13.374;2022-08-23T05:25:33;10.10;;;7.50;;
2055;SDS011;1033;52.560;13.374;2022-08-23T05:28:40;8.10;;;5.73;;
2055;SDS011;1033;52.560;13.374;2022-08-23T05:31:16;5.67;;;5.03;;
2055;SDS011;1033;52.560;13.374;2022-08-23T05:33:52;9.63;;;6.53;;
2055;SDS011;1033;52.560;13.374;2022-08-23T05:36:48;8.70;;;6.27;;
2055;SDS011;1033;52.560;13.374;2022-08-23T05:39:34;6.30;;;5.23;;
2055;SDS011;1033;52.560;13.374;2022-08-23T05:42:05;8.90;;;6.20;;
2055;SDS011;1033;52.560;13.374;2022-08-23T05:44:36;5.90;;;5.30;;
2055;SDS011;1033;52.560;13.374;2022-08-23T05:47:09;9.67;;;6.67;;
2055;SDS011;1033;52.560;13.374;2022-08-23T05:49:59;6.87;;;6.23;;
2055;SDS011;1033;52.560;13.374;2022-08-23T05:52:32;7.50;;;5.30;;
2055;SDS011;1033;52.560;13.374;2022-08-23T05:55:02;6.57;;;5.90;;
2055;SDS011;1033;52.560;13.374;2022-08-23T05:57:50;10.60;;;7.30;;
2055;SDS011;1033;52.560;13.374;2022-08-23T06:00:19;11.87;;;6.30;;
2055;SDS011;1033;52.560;13.374;2022-08-23T06:03:04;8.97;;;6.47;;
2055;SDS011;1033;52.560;13.374;2022-08-23T06:05:37;15.20;;;6.10;;
2055;SDS011;1033;52.560;13.374;2022-08-23T06:08:09;9.40;;;7.13;;
2055;SDS011;1033;52.560;13.374;2022-08-23T06:10:38;7.33;;;6.00;;
2055;SDS011;1033;52.560;13.374;2022-08-23T06:13:21;8.67;;;6.53;;
2055;SDS011;1033;52.560;13.374;2022-08-23T06:15:51;6.93;;;5.97;;
2055;SDS011;1033;52.560;13.374;2022-08-23T06:18:22;7.27;;;6.43;;
2055;SDS011;1033;52.560;13.374;2022-08-23T06:21:00;6.97;;;6.27;;
2055;SDS011;1033;52.560;13.374;2022-08-23T06:23:45;8.30;;;5.10;;
2055;SDS011;1033;52.560;13.374;2022-08-23T06:26:16;6.40;;;5.30;;
2055;SDS011;1033;52.560;13.374;2022-08-23T06:28:50;7.13;;;5.83;;
2055;SDS011;1033;52.560;13.374;2022-08-23T06:31:24;9.07;;;5.67;;
2055;SDS011;1033;52.560;13.374;2022-08-23T06:34:21;10.83;;;5.63;;
2055;SDS011;1033;52.560;13.374;2022-08-23T06:37:30;6.87;;;5.10;;
2055;SDS011;1033;52.560;13.374;2022-08-23T06:40:29;9.23;;;5.77;;
2055;SDS011;1033;52.560;13.374;2022-08-23T06:43:18;5.70;;;5.10;;
2055;SDS011;1033;52.560;13.374;2022-08-23T06:46:09;9.77;;;5.20;;
2055;SDS011;1033;52.560;13.374;2022-08-23T06:48:43;7.13;;;4.87;;
2055;SDS011;1033;52.560;13.374;2022-08-23T06:51:17;6.40;;;5.10;;
2055;SDS011;1033;52.560;13.374;2022-08-23T06:54:02;8.13;;;5.10;;
2055;SDS011;1033;52.560;13.374;2022-08-23T06:56:43;8.80;;;5.63;;
2055;SDS011;1033;52.560;13.374;2022-08-23T06:59:16;5.83;;;4.60;;
2055;SDS011;1033;52.560;13.374;2022-08-23T07:02:07;14.63;;;7.83;;
2055;SDS011;1033;52.560;13.374;2022-08-23T07:05:03;6.17;;;5.57;;
2055;SDS011;1033;52.560;13.374;2022-08-23T07:07:48;6.40;;;5.57;;
2055;SDS011;1033;52.560;13.374;2022-08-23T07:10:18;6.37;;;5.67;;
2055;SDS011;1033;52.560;13.374;2022-08-23T07:12:47;9.50;;;4.60;;
2055;SDS011;1033;52.560;13.374;2022-08-23T07:15:18;6.93;;;4.73;;
2055;SDS011;1033;52.560;13.374;2022-08-23T07:17:48;11.93;;;5.20;;
2055;SDS011;1033;52.560;13.374;2022-08-23T07:20:17;6.43;;;4.47;;
2055;SDS011;1033;52.560;13.374;2022-08-23T07:22:46;7.63;;;5.10;;
2055;SDS011;1033;52.560;13.374;2022-08-23T07:25:17;7.40;;;4.63;;
2055;SDS011;1033;52.560;13.374;2022-08-23T07:27:51;7.50;;;4.27;;
2055;SDS011;1033;52.560;13.374;2022-08-23T07:30:21;15.80;;;4.90;;
2055;SDS011;1033;52.560;13.374;2022-08-23T07:32:50;7.70;;;4.90;;
2055;SDS011;1033;52.560;13.374;2022-08-23T07:35:20;5.70;;;4.63;;
2055;SDS011;1033;52.560;13.374;2022-08-23T07:37:54;4.80;;;3.97;;
2055;SDS011;1033;52.560;13.374;2022-08-23T07:40:34;5.83;;;5.10;;
2055;SDS011;1033;52.560;13.374;2022-08-23T07:43:07;4.43;;;3.97;;
2055;SDS011;1033;52.560;13.374;2022-08-23T07:45:38;5.13;;;4.63;;
2055;SDS011;1033;52.560;13.374;2022-08-23T07:48:09;6.17;;;3.70;;
2055;SDS011;1033;52.560;13.374;2022-08-23T07:51:08;6.20;;;4.87;;
2055;SDS011;1033;52.560;13.374;2022-08-23T07:53:41;5.57;;;3.60;;
2055;SDS011;1033;52.560;13.374;2022-08-23T07:56:15;7.50;;;5.00;;
2055;SDS011;1033;52.560;13.374;2022-08-23T07:59:05;7.45;;;4.10;;
2055;SDS011;1033;52.560;13.374;2022-08-23T08:01:39;13.10;;;4.90;;
2055;SDS011;1033;52.560;13.374;2022-08-23T08:04:11;4.30;;;3.90;;
2055;SDS011;1033;52.560;13.374;2022-08-23T08:06:44;5.00;;;3.90;;
2055;SDS011;1033;52.560;13.374;2022-08-23T08:09:40;8.33;;;4.50;;
2055;SDS011;1033;52.560;13.374;2022-08-23T08:12:09;5.27;;;3.97;;
2055;SDS011;1033;52.560;13.374;2022-08-23T08:14:40;3.90;;;3.50;;
2055;SDS011;1033;52.560;13.374;2022-08-23T08:17:12;10.07;;;5.83;;
2055;SDS011;1033;52.560;13.374;2022-08-23T08:20:01;6.53;;;3.67;;
2055;SDS011;1033;52.560;13.374;2022-08-23T08:22:37;7.03;;;3.80;;
2055;SDS011;1033;52.560;13.374;2022-08-23T08:25:33;3.93;;;3.53;;
2055;SDS011;1033;52.560;13.374;2022-08-23T08:28:05;9.07;;;4.17;;
2055;SDS011;1033;52.560;13.374;2022-08-23T08:30:41;4.17;;;3.77;;
2055;SDS011;1033;52.560;13.374;2022-08-23T08:33:11;5.20;;;4.10;;
2055;SDS011;1033;52.560;13.374;2022-08-23T08:35:45;5.13;;;3.27;;
2055;SDS011;1033;52.560;13.374;2022-08-23T08:38:26;5.50;;;3.40;;
2055;SDS011;1033;52.560;13.374;2022-08-23T08:41:00;6.33;;;4.37;;
2055;SDS011;1033;52.560;13.374;2022-08-23T08:43:41;5.70;;;4.37;;
2055;SDS011;1033;52.560;13.374;2022-08-23T08:46:27;4.77;;;3.30;;
2055;SDS011;1033;52.560;13.374;2022-08-23T08:49:09;5.80;;;3.83;;
2055;SDS011;1033;52.560;13.374;2022-08-23T08:51:47;6.00;;;3.50;;
2055;SDS011;1033;52.560;13.374;2022-08-23T08:54:23;6.83;;;4.67;;
2055;SDS011;1033;52.560;13.374;2022-08-23T08:56:58;6.63;;;4.20;;
2055;SDS011;1033;52.560;13.374;2022-08-23T08:59:35;5.10;;;3.47;;
2055;SDS011;1033;52.560;13.374;2022-08-23T09:02:23;4.50;;;3.77;;
2055;SDS011;1033;52.560;13.374;2022-08-23T09:05:06;6.33;;;3.73;;
2055;SDS011;1033;52.560;13.374;2022-08-23T09:07:43;4.97;;;3.23;;
2055;SDS011;1033;52.560;13.374;2022-08-23T09:10:46;3.53;;;2.77;;
2055;SDS011;1033;52.560;13.374;2022-08-23T09:13:30;4.67;;;3.20;;
2055;SDS011;1033;52.560;13.374;2022-08-23T09:16:44;9.53;;;4.20;;
2055;SDS011;1033;52.560;13.374;2022-08-23T09:19:19;8.57;;;4.27;;
2055;SDS011;1033;52.560;13.374;2022-08-23T09:21:54;6.23;;;2.90;;
2055;SDS011;1033;52.560;13.374;2022-08-23T09:24:29;5.37;;;3.07;;
2055;SDS011;1033;52.560;13.374;2022-08-23T09:27:06;5.50;;;3.63;;
2055;SDS011;1033;52.560;13.374;2022-08-23T09:29:39;3.80;;;2.83;;
2055;SDS011;1033;52.560;13.374;2022-08-23T09:32:26;6.67;;;4.03;;
2055;SDS011;1033;52.560;13.374;2022-08-23T09:35:06;6.43;;;3.60;;
2055;SDS011;1033;52.560;13.374;2022-08-23T09:37:52;5.50;;;3.47;;
2055;SDS011;1033;52.560;13.374;2022-08-23T09:40:32;4.20;;;3.03;;
2055;SDS011;1033;52.560;13.374;2022-08-23T09:43:11;3.37;;;2.80;;
2055;SDS011;1033;52.560;13.374;2022-08-23T09:45:54;4.33;;;3.27;;
2055;SDS011;1033;52.560;13.374;2022-08-23T09:48:32;4.40;;;4.00;;
2055;SDS011;1033;52.560;13.374;2022-08-23T09:51:15;3.20;;;2.80;;
2055;SDS011;1033;52.560;13.374;2022-08-23T09:54:01;5.97;;;4.17;;
2055;SDS011;1033;52.560;13.374;2022-08-23T09:56:38;3.97;;;3.00;;
2055;SDS011;1033;52.560;13.374;2022-08-23T09:59:18;4.03;;;3.60;;
2055;SDS011;1033;52.560;13.374;2022-08-23T10:02:08;5.23;;;3.30;;
2055;SDS011;1033;52.560;13.374;2022-08-23T10:04:53;3.77;;;3.47;;
2055;SDS011;1033;52.560;13.374;2022-08-23T10:07:32;6.33;;;4.10;;
2055;SDS011;1033;52.560;13.374;2022-08-23T10:10:13;5.63;;;3.57;;
2055;SDS011;1033;52.560;13.374;2022-08-23T10:12:54;5.20;;;4.03;;
2055;SDS011;1033;52.560;13.374;2022-08-23T10:15:31;4.37;;;3.60;;
2055;SDS011;1033;52.560;13.374;2022-08-23T10:18:30;5.00;;;3.90;;
2055;SDS011;1033;52.560;13.374;2022-08-23T10:21:16;6.70;;;4.40;;
2055;SDS011;1033;52.560;13.374;2022-08-23T10:23:56;6.20;;;4.07;;
2055;SDS011;1033;52.560;13.374;2022-08-23T10:26:45;4.43;;;3.73;;
2055;SDS011;1033;52.560;13.374;2022-08-23T10:29:55;6.73;;;4.40;;
2055;SDS011;1033;52.560;13.374;2022-08-23T10:32:36;7.83;;;4.17;;
2055;SDS011;1033;52.560;13.374;2022-08-23T10:35:31;5.77;;;3.80;;
2055;SDS011;1033;52.560;13.374;2022-08-23T10:38:16;5.20;;;3.90;;
2055;SDS011;1033;52.560;13.374;2022-08-23T10:41:10;6.73;;;3.73;;
2055;SDS011;1033;52.560;13.374;2022-08-23T10:43:59;4.10;;;2.97;;
2055;SDS011;1033;52.560;13.374;2022-08-23T10:47:01;4.20;;;3.80;;
2055;SDS011;1033;52.560;13.374;2022-08-23T10:49:43;5.43;;;3.00;;
2055;SDS011;1033;52.560;13.374;2022-08-23T10:52:19;3.83;;;3.43;;
2055;SDS011;1033;52.560;13.374;2022-08-23T10:54:57;3.23;;;2.93;;
2055;SDS011;1033;52.560;13.374;2022-08-23T10:57:44;3.83;;;3.33;;
2055;SDS011;1033;52.560;13.374;2022-08-23T11:00:16;3.90;;;3.37;;
2055;SDS011;1033;52.560;13.374;2022-08-23T11:02:54;4.13;;;3.50;;
2055;SDS011;1033;52.560;13.374;2022-08-23T11:05:36;5.73;;;3.43;;
2055;SDS011;1033;52.560;13.374;2022-08-23T11:14:24;5.43;;;2.80;;
2055;SDS011;1033;52.560;13.374;2022-08-23T11:17:05;8.60;;;2.90;;
2055;SDS011;1033;52.560;13.374;2022-08-23T11:19:49;3.57;;;3.27;;
2055;SDS011;1033;52.560;13.374;2022-08-23T11:22:24;3.83;;;2.63;;
2055;SDS011;1033;52.560;13.374;2022-08-23T11:24:59;6.40;;;3.30;;
2055;SDS011;1033;52.560;13.374;2022-08-23T11:27:38;4.50;;;2.23;;
2055;SDS011;1033;52.560;13.374;2022-08-23T11:33:25;5.30;;;2.87;;
2055;SDS011;1033;52.560;13.374;2022-08-23T11:36:16;4.17;;;2.37;;
2055;SDS011;1033;52.560;13.374;2022-08-23T11:38:59;7.83;;;3.40;;
2055;SDS011;1033;52.560;13.374;2022-08-23T11:44:36;6.00;;;3.30;;
2055;SDS011;1033;52.560;13.374;2022-08-23T11:47:25;3.90;;;3.20;;
2055;SDS011;1033;52.560;13.374;2022-08-23T11:50:14;4.67;;;3.20;;
2055;SDS011;1033;52.560;13.374;2022-08-23T11:53:09;3.17;;;2.87;;
2055;SDS011;1033;52.560;13.374;2022-08-23T11:56:01;3.93;;;3.10;;
2055;SDS011;1033;52.560;13.374;2022-08-23T11:59:05;3.83;;;3.40;;
2055;SDS011;1033;52.560;13.374;2022-08-23T12:05:19;4.50;;;3.30;;
2055;SDS011;1033;52.560;13.374;2022-08-23T12:08:25;3.73;;;3.33;;
2055;SDS011;1033;52.560;13.374;2022-08-23T12:11:06;3.87;;;2.37;;
2055;SDS011;1033;52.560;13.374;2022-08-23T12:13:45;9.80;;;3.50;;
2055;SDS011;1033;52.560;13.374;2022-08-23T12:16:27;4.20;;;3.07;;
2055;SDS011;1033;52.560;13.374;2022-08-23T12:19:30;5.00;;;2.67;;
2055;SDS011;1033;52.560;13.374;2022-08-23T12:22:06;3.60;;;2.60;;
2055;SDS011;1033;52.560;13.374;2022-08-23T12:24:42;3.57;;;2.23;;
2055;SDS011;1033;52.560;13.374;2022-08-23T12:27:20;3.20;;;2.90;;
2055;SDS011;1033;52.560;13.374;2022-08-23T12:29:58;3.67;;;2.30;;
2055;SDS011;1033;52.560;13.374;2022-08-23T12:32:35;3.27;;;2.30;;
2055;SDS011;1033;52.560;13.374;2022-08-23T12:35:20;2.60;;;2.27;;
2055;SDS011;1033;52.560;13.374;2022-08-23T12:38:03;2.33;;;2.03;;
2055;SDS011;1033;52.560;13.374;2022-08-23T12:40:42;4.53;;;2.13;;
2055;SDS011;1033;52.560;13.374;2022-08-23T12:43:18;5.53;;;2.20;;
2055;SDS011;1033;52.560;13.374;2022-08-23T12:45:50;3.70;;;2.00;;
2055;SDS011;1033;52.560;13.374;2022-08-23T12:48:24;3.07;;;2.00;;
2055;SDS011;1033;52.560;13.374;2022-08-23T12:50:58;3.17;;;2.60;;
2055;SDS011;1033;52.560;13.374;2022-08-23T12:53:31;2.70;;;1.90;;
2055;SDS011;1033;52.560;13.374;2022-08-23T12:56:13;3.23;;;2.17;;
2055;SDS011;1033;52.560;13.374;2022-08-23T12:58:47;3.47;;;2.10;;
2055;SDS011;1033;52.560;13.374;2022-08-23T13:01:22;3.70;;;2.80;;
2055;SDS011;1033;52.560;13.374;2022-08-23T13:03:59;4.30;;;3.20;;
2055;SDS011;1033;52.560;13.374;2022-08-23T13:06:47;2.53;;;2.20;;
2055;SDS011;1033;52.560;13.374;2022-08-23T13:09:23;4.70;;;3.30;;
2055;SDS011;1033;52.560;13.374;2022-08-23T13:11:58;4.30;;;2.93;;
2055;SDS011;1033;52.560;13.374;2022-08-23T13:14:32;3.70;;;2.70;;
2055;SDS011;1033;52.560;13.374;2022-08-23T13:17:14;6.37;;;2.67;;
2055;SDS011;1033;52.560;13.374;2022-08-23T13:19:51;4.30;;;2.60;;
2055;SDS011;1033;52.560;13.374;2022-08-23T13:22:38;2.80;;;2.30;;
2055;SDS011;1033;52.560;13.374;2022-08-23T13:25:24;3.70;;;2.33;;
2055;SDS011;1033;52.560;13.374;2022-08-23T13:27:58;6.40;;;2.10;;
2055;SDS011;1033;52.560;13.374;2022-08-23T13:30:32;5.80;;;1.90;;
2055;SDS011;1033;52.560;13.374;2022-08-23T13:33:17;3.03;;;2.73;;
2055;SDS011;1033;52.560;13.374;2022-08-23T13:35:52;2.73;;;1.77;;
2055;SDS011;1033;52.560;13.374;2022-08-23T13:38:39;7.00;;;1.70;;
2055;SDS011;1033;52.560;13.374;2022-08-23T13:41:11;4.47;;;4.00;;
2055;SDS011;1033;52.560;13.374;2022-08-23T13:44:05;5.10;;;2.13;;
2055;SDS011;1033;52.560;13.374;2022-08-23T13:46:42;3.00;;;1.77;;
2055;SDS011;1033;52.560;13.374;2022-08-23T13:49:15;2.83;;;2.27;;
2055;SDS011;1033;52.560;13.374;2022-08-23T13:52:03;3.57;;;2.70;;
2055;SDS011;1033;52.560;13.374;2022-08-23T13:54:56;5.70;;;3.00;;
2055;SDS011;1033;52.560;13.374;2022-08-23T13:57:25;6.90;;;2.60;;
2055;SDS011;1033;52.560;13.374;2022-08-23T13:59:55;2.67;;;1.80;;
2055;SDS011;1033;52.560;13.374;2022-08-23T14:02:25;3.30;;;2.33;;
2055;SDS011;1033;52.560;13.374;2022-08-23T14:04:55;4.10;;;2.27;;
2055;SDS011;1033;52.560;13.374;2022-08-23T14:07:25;2.40;;;2.20;;
2055;SDS011;1033;52.560;13.374;2022-08-23T14:09:54;3.43;;;2.30;;
2055;SDS011;1033;52.560;13.374;2022-08-23T14:12:24;3.97;;;2.63;;
2055;SDS011;1033;52.560;13.374;2022-08-23T14:14:57;4.00;;;2.67;;
2055;SDS011;1033;52.560;13.374;2022-08-23T14:17:29;6.63;;;2.60;;
2055;SDS011;1033;52.560;13.374;2022-08-23T14:20:05;5.63;;;2.90;;
2055;SDS011;1033;52.560;13.374;2022-08-23T14:22:58;2.53;;;2.20;;
2055;SDS011;1033;52.560;13.374;2022-08-23T14:25:37;3.20;;;2.77;;
2055;SDS011;1033;52.560;13.374;2022-08-23T14:28:07;2.40;;;1.63;;
2055;SDS011;1033;52.560;13.374;2022-08-23T14:30:39;1.87;;;1.60;;
2055;SDS011;1033;52.560;13.374;2022-08-23T14:33:08;4.77;;;2.20;;
2055;SDS011;1033;52.560;13.374;2022-08-23T14:35:37;4.17;;;2.30;;
2055;SDS011;1033;52.560;13.374;2022-08-23T14:38:08;3.70;;;2.00;;
2055;SDS011;1033;52.560;13.374;2022-08-23T14:40:39;2.77;;;2.00;;
2055;SDS011;1033;52.560;13.374;2022-08-23T14:43:16;1.90;;;1.70;;
2055;SDS011;1033;52.560;13.374;2022-08-23T14:45:46;3.00;;;1.50;;
2055;SDS011;1033;52.560;13.374;2022-08-23T14:48:16;4.60;;;2.10;;
2055;SDS011;1033;52.560;13.374;2022-08-23T14:50:46;3.37;;;1.90;;
2055;SDS011;1033;52.560;13.374;2022-08-23T14:53:18;4.50;;;1.73;;
2055;SDS011;1033;52.560;13.374;2022-08-23T14:55:51;6.30;;;2.23;;
2055;SDS011;1033;52.560;13.374;2022-08-23T14:58:41;4.00;;;2.10;;
2055;SDS011;1033;52.560;13.374;2022-08-23T15:01:10;9.10;;;2.27;;
2055;SDS011;1033;52.560;13.374;2022-08-23T15:03:41;5.50;;;2.27;;
2055;SDS011;1033;52.560;13.374;2022-08-23T15:06:10;5.70;;;3.20;;
2055;SDS011;1033;52.560;13.374;2022-08-23T15:08:43;4.50;;;2.50;;
2055;SDS011;1033;52.560;13.374;2022-08-23T15:11:13;3.23;;;2.30;;
2055;SDS011;1033;52.560;13.374;2022-08-23T15:14:02;5.50;;;2.90;;
2055;SDS011;1033;52.560;13.374;2022-08-23T15:16:32;3.93;;;2.67;;
2055;SDS011;1033;52.560;13.374;2022-08-23T15:19:02;8.77;;;2.77;;
2055;SDS011;1033;52.560;13.374;2022-08-23T15:21:32;5.53;;;2.90;;
2055;SDS011;1033;52.560;13.374;2022-08-23T15:24:03;3.60;;;2.73;;
2055;SDS011;1033;52.560;13.374;2022-08-23T15:26:32;5.83;;;2.83;;
2055;SDS011;1033;52.560;13.374;2022-08-23T15:29:02;5.50;;;3.13;;
2055;SDS011;1033;52.560;13.374;2022-08-23T15:31:32;3.40;;;2.80;;
2055;SDS011;1033;52.560;13.374;2022-08-23T15:34:02;4.53;;;2.53;;
2055;SDS011;1033;52.560;13.374;2022-08-23T15:36:39;3.27;;;2.97;;
2055;SDS011;1033;52.560;13.374;2022-08-23T15:39:10;5.20;;;3.00;;
2055;SDS011;1033;52.560;13.374;2022-08-23T15:41:40;6.30;;;2.80;;
2055;SDS011;1033;52.560;13.374;2022-08-23T15:44:10;8.73;;;3.40;;
2055;SDS011;1033;52.560;13.374;2022-08-23T15:46:39;2.93;;;2.63;;
2055;SDS011;1033;52.560;13.374;2022-08-23T15:49:14;8.07;;;2.70;;
2055;SDS011;1033;52.560;13.374;2022-08-23T15:51:45;3.63;;;2.73;;
2055;SDS011;1033;52.560;13.374;2022-08-23T15:54:15;3.73;;;2.50;;
2055;SDS011;1033;52.560;13.374;2022-08-23T15:56:46;3.10;;;2.33;;
2055;SDS011;1033;52.560;13.374;2022-08-23T15:59:18;5.17;;;2.40;;
2055;SDS011;1033;52.560;13.374;2022-08-23T16:01:48;3.23;;;2.70;;
2055;SDS011;1033;52.560;13.374;2022-08-23T16:04:17;5.43;;;3.13;;
2055;SDS011;1033;52.560;13.374;2022-08-23T16:06:46;5.27;;;2.97;;
2055;SDS011;1033;52.560;13.374;2022-08-23T16:09:19;2.90;;;2.60;;
2055;SDS011;1033;52.560;13.374;2022-08-23T16:11:50;5.90;;;2.90;;
2055;SDS011;1033;52.560;13.374;2022-08-23T16:14:25;8.10;;;2.50;;
2055;SDS011;1033;52.560;13.374;2022-08-23T16:16:56;6.03;;;3.33;;